sensor_id;sensor_type;location;lat;lon;timestamp;temperature;humidity
14771;DHT22;7477;45.222;5.688;2024-01-06T00:02:05;6.80;99.90
14771;DHT22;7477;45.222;5.688;2024-01-06T00:05:24;6.80;99.90
14771;DHT22;7477;45.222;5.688;2024-01-06T00:08:43;6.80;99.90
14771;DHT22;7477;45.222;5.688;2024-01-06T00:12:03;6.80;99.90
14771;DHT22;7477;45.222;5.688;2024-01-06T00:15:22;6.80;99.90
14771;DHT22;7477;45.222;5.688;2024-01-06T00:18:41;6.80;99.90
14771;DHT22;7477;45.222;5.688;2024-01-06T00:22:00;6.90;99.90
14771;DHT22;7477;45.222;5.688;2024-01-06T00:25:19;6.80;99.90
14771;DHT22;7477;45.222;5.688;2024-01-06T00:28:41;6.80;99.90
14771;DHT22;7477;45.222;5.688;2024-01-06T00:32:01;6.80;99.90
14771;DHT22;7477;45.222;5.688;2024-01-06T00:35:20;6.80;99.90
14771;DHT22;7477;45.222;5.688;2024-01-06T00:38:39;6.80;99.90
14771;DHT22;7477;45.222;5.688;2024-01-06T00:41:58;6.80;99.90
14771;DHT22;7477;45.222;5.688;2024-01-06T00:45:17;6.80;99.90
14771;DHT22;7477;45.222;5.688;2024-01-06T00:48:37;6.80;99.90
14771;DHT22;7477;45.222;5.688;2024-01-06T00:51:56;6.80;99.90
14771;DHT22;7477;45.222;5.688;2024-01-06T00:55:15;6.80;99.90
14771;DHT22;7477;45.222;5.688;2024-01-06T00:58:34;6.80;99.90
14771;DHT22;7477;45.222;5.688;2024-01-06T01:01:53;6.80;99.90
14771;DHT22;7477;45.222;5.688;2024-01-06T01:05:12;6.80;99.90
14771;DHT22;7477;45.222;5.688;2024-01-06T01:08:31;6.80;99.90
14771;DHT22;7477;45.222;5.688;2024-01-06T01:11:51;6.80;99.90
14771;DHT22;7477;45.222;5.688;2024-01-06T01:15:11;6.80;99.90
14771;DHT22;7477;45.222;5.688;2024-01-06T01:18:30;6.80;99.90
14771;DHT22;7477;45.222;5.688;2024-01-06T01:21:49;6.90;99.90
14771;DHT22;7477;45.222;5.688;2024-01-06T01:25:08;6.90;99.90
14771;DHT22;7477;45.222;5.688;2024-01-06T01:28:27;6.80;99.90
14771;DHT22;7477;45.222;5.688;2024-01-06T01:31:46;6.80;99.90
14771;DHT22;7477;45.222;5.688;2024-01-06T01:35:08;6.80;99.90
14771;DHT22;7477;45.222;5.688;2024-01-06T01:38:27;6.80;99.90
14771;DHT22;7477;45.222;5.688;2024-01-06T01:41:46;6.80;99.90
14771;DHT22;7477;45.222;5.688;2024-01-06T01:45:05;6.90;99.90
14771;DHT22;7477;45.222;5.688;2024-01-06T01:48:25;6.90;99.90
14771;DHT22;7477;45.222;5.688;2024-01-06T01:51:44;6.90;99.90
14771;DHT22;7477;45.222;5.688;2024-01-06T01:55:04;7.00;99.90
14771;DHT22;7477;45.222;5.688;2024-01-06T01:58:24;7.00;99.90
14771;DHT22;7477;45.222;5.688;2024-01-06T02:01:43;7.00;99.90
14771;DHT22;7477;45.222;5.688;2024-01-06T02:05:03;7.00;99.90
14771;DHT22;7477;45.222;5.688;2024-01-06T02:08:23;7.10;99.90
14771;DHT22;7477;45.222;5.688;2024-01-06T02:11:42;7.10;99.90
14771;DHT22;7477;45.222;5.688;2024-01-06T02:15:02;7.10;99.90
14771;DHT22;7477;45.222;5.688;2024-01-06T02:18:21;7.10;99.90
14771;DHT22;7477;45.222;5.688;2024-01-06T02:21:42;7.10;99.90
14771;DHT22;7477;45.222;5.688;2024-01-06T02:25:05;7.00;99.90
14771;DHT22;7477;45.222;5.688;2024-01-06T02:28:31;7.10;99.90
14771;DHT22;7477;45.222;5.688;2024-01-06T02:31:50;7.10;99.90
14771;DHT22;7477;45.222;5.688;2024-01-06T02:35:09;7.10;99.90
14771;DHT22;7477;45.222;5.688;2024-01-06T02:38:29;7.10;99.90
14771;DHT22;7477;45.222;5.688;2024-01-06T02:41:48;7.00;99.90
14771;DHT22;7477;45.222;5.688;2024-01-06T02:45:07;7.00;99.90
14771;DHT22;7477;45.222;5.688;2024-01-06T02:48:28;7.00;99.90
14771;DHT22;7477;45.222;5.688;2024-01-06T02:51:49;7.00;99.90
14771;DHT22;7477;45.222;5.688;2024-01-06T02:55:08;7.00;99.90
14771;DHT22;7477;45.222;5.688;2024-01-06T02:58:28;6.90;99.90
14771;DHT22;7477;45.222;5.688;2024-01-06T03:01:47;6.90;99.90
14771;DHT22;7477;45.222;5.688;2024-01-06T03:05:06;7.00;99.90
14771;DHT22;7477;45.222;5.688;2024-01-06T03:08:26;6.90;99.90
14771;DHT22;7477;45.222;5.688;2024-01-06T03:11:45;6.90;99.90
14771;DHT22;7477;45.222;5.688;2024-01-06T03:15:05;6.90;99.90
14771;DHT22;7477;45.222;5.688;2024-01-06T03:18:25;6.90;99.90
14771;DHT22;7477;45.222;5.688;2024-01-06T03:21:45;6.90;99.90
14771;DHT22;7477;45.222;5.688;2024-01-06T03:25:04;6.90;99.90
14771;DHT22;7477;45.222;5.688;2024-01-06T03:28:25;6.90;99.90
14771;DHT22;7477;45.222;5.688;2024-01-06T03:31:45;6.80;99.90
14771;DHT22;7477;45.222;5.688;2024-01-06T03:35:05;6.80;99.90
14771;DHT22;7477;45.222;5.688;2024-01-06T03:38:25;6.80;99.90
14771;DHT22;7477;45.222;5.688;2024-01-06T03:41:44;6.80;99.90
14771;DHT22;7477;45.222;5.688;2024-01-06T03:45:03;6.80;99.90
14771;DHT22;7477;45.222;5.688;2024-01-06T03:48:23;6.70;99.90
14771;DHT22;7477;45.222;5.688;2024-01-06T03:51:42;6.80;99.90
14771;DHT22;7477;45.222;5.688;2024-01-06T03:55:01;6.70;99.90
14771;DHT22;7477;45.222;5.688;2024-01-06T03:58:21;6.80;99.90
14771;DHT22;7477;45.222;5.688;2024-01-06T04:01:41;6.70;99.90
14771;DHT22;7477;45.222;5.688;2024-01-06T04:05:00;6.80;99.90
14771;DHT22;7477;45.222;5.688;2024-01-06T04:08:19;6.70;99.90
14771;DHT22;7477;45.222;5.688;2024-01-06T04:11:39;6.70;99.90
14771;DHT22;7477;45.222;5.688;2024-01-06T04:14:58;6.70;99.90
14771;DHT22;7477;45.222;5.688;2024-01-06T04:18:17;6.70;99.90
14771;DHT22;7477;45.222;5.688;2024-01-06T04:21:37;6.70;99.90
14771;DHT22;7477;45.222;5.688;2024-01-06T04:24:56;6.60;99.90
14771;DHT22;7477;45.222;5.688;2024-01-06T04:28:15;6.60;99.90
14771;DHT22;7477;45.222;5.688;2024-01-06T04:31:34;6.60;99.90
14771;DHT22;7477;45.222;5.688;2024-01-06T04:34:54;6.60;99.90
14771;DHT22;7477;45.222;5.688;2024-01-06T04:38:13;6.60;99.90
14771;DHT22;7477;45.222;5.688;2024-01-06T04:41:32;6.50;99.90
14771;DHT22;7477;45.222;5.688;2024-01-06T04:44:51;6.50;99.90
14771;DHT22;7477;45.222;5.688;2024-01-06T04:48:11;6.50;99.90
14771;DHT22;7477;45.222;5.688;2024-01-06T04:51:30;6.50;99.90
14771;DHT22;7477;45.222;5.688;2024-01-06T04:54:49;6.50;99.90
14771;DHT22;7477;45.222;5.688;2024-01-06T04:58:08;6.50;99.90
14771;DHT22;7477;45.222;5.688;2024-01-06T05:01:27;6.50;99.90
14771;DHT22;7477;45.222;5.688;2024-01-06T05:04:47;6.50;99.90
14771;DHT22;7477;45.222;5.688;2024-01-06T05:08:06;6.50;99.90
14771;DHT22;7477;45.222;5.688;2024-01-06T05:11:25;6.50;99.90
14771;DHT22;7477;45.222;5.688;2024-01-06T05:14:44;6.40;99.90
14771;DHT22;7477;45.222;5.688;2024-01-06T05:18:03;6.40;99.90
14771;DHT22;7477;45.222;5.688;2024-01-06T05:21:23;6.30;99.90
14771;DHT22;7477;45.222;5.688;2024-01-06T05:24:42;6.30;99.90
14771;DHT22;7477;45.222;5.688;2024-01-06T05:28:01;6.30;99.90
14771;DHT22;7477;45.222;5.688;2024-01-06T05:31:20;6.30;99.90
14771;DHT22;7477;45.222;5.688;2024-01-06T05:34:40;6.30;99.90
14771;DHT22;7477;45.222;5.688;2024-01-06T05:37:59;6.20;99.90
14771;DHT22;7477;45.222;5.688;2024-01-06T05:41:18;6.20;99.90
14771;DHT22;7477;45.222;5.688;2024-01-06T05:44:37;6.30;99.90
14771;DHT22;7477;45.222;5.688;2024-01-06T05:47:57;6.30;99.90
14771;DHT22;7477;45.222;5.688;2024-01-06T05:51:16;6.20;99.90
14771;DHT22;7477;45.222;5.688;2024-01-06T05:54:35;6.20;99.90
14771;DHT22;7477;45.222;5.688;2024-01-06T05:57:54;6.20;99.90
14771;DHT22;7477;45.222;5.688;2024-01-06T06:01:13;6.20;99.90
14771;DHT22;7477;45.222;5.688;2024-01-06T06:04:33;6.20;99.90
14771;DHT22;7477;45.222;5.688;2024-01-06T06:07:52;6.20;99.90
14771;DHT22;7477;45.222;5.688;2024-01-06T06:11:11;6.20;99.90
14771;DHT22;7477;45.222;5.688;2024-01-06T06:14:31;6.10;99.90
14771;DHT22;7477;45.222;5.688;2024-01-06T06:17:50;6.10;99.90
14771;DHT22;7477;45.222;5.688;2024-01-06T06:21:09;6.10;99.90
14771;DHT22;7477;45.222;5.688;2024-01-06T06:24:29;6.10;99.90
14771;DHT22;7477;45.222;5.688;2024-01-06T06:27:48;6.00;99.90
14771;DHT22;7477;45.222;5.688;2024-01-06T06:31:07;6.00;99.90
14771;DHT22;7477;45.222;5.688;2024-01-06T06:34:27;6.00;99.90
14771;DHT22;7477;45.222;5.688;2024-01-06T06:37:46;6.00;99.90
14771;DHT22;7477;45.222;5.688;2024-01-06T06:41:05;5.90;99.90
14771;DHT22;7477;45.222;5.688;2024-01-06T06:44:24;6.00;99.90
14771;DHT22;7477;45.222;5.688;2024-01-06T06:47:43;6.00;99.90
14771;DHT22;7477;45.222;5.688;2024-01-06T06:51:03;5.90;99.90
14771;DHT22;7477;45.222;5.688;2024-01-06T06:54:22;5.90;99.90
14771;DHT22;7477;45.222;5.688;2024-01-06T06:57:41;5.90;99.90
14771;DHT22;7477;45.222;5.688;2024-01-06T07:01:01;5.90;99.90
14771;DHT22;7477;45.222;5.688;2024-01-06T07:04:20;5.80;99.90
14771;DHT22;7477;45.222;5.688;2024-01-06T07:07:39;5.80;99.90
14771;DHT22;7477;45.222;5.688;2024-01-06T07:10:58;5.80;99.90
14771;DHT22;7477;45.222;5.688;2024-01-06T07:14:17;5.80;99.90
14771;DHT22;7477;45.222;5.688;2024-01-06T07:17:37;5.80;99.90
14771;DHT22;7477;45.222;5.688;2024-01-06T07:20:57;5.80;99.90
14771;DHT22;7477;45.222;5.688;2024-01-06T07:24:17;5.80;99.90
14771;DHT22;7477;45.222;5.688;2024-01-06T07:27:37;5.70;99.90
14771;DHT22;7477;45.222;5.688;2024-01-06T07:30:56;5.70;99.90
14771;DHT22;7477;45.222;5.688;2024-01-06T07:34:15;5.70;99.90
14771;DHT22;7477;45.222;5.688;2024-01-06T07:37:35;5.70;99.90
14771;DHT22;7477;45.222;5.688;2024-01-06T07:40:54;5.60;99.90
14771;DHT22;7477;45.222;5.688;2024-01-06T07:44:13;5.70;99.90
14771;DHT22;7477;45.222;5.688;2024-01-06T07:47:35;5.70;99.90
14771;DHT22;7477;45.222;5.688;2024-01-06T07:50:54;5.70;99.90
14771;DHT22;7477;45.222;5.688;2024-01-06T07:54:13;5.80;99.90
14771;DHT22;7477;45.222;5.688;2024-01-06T07:57:32;5.70;99.90
14771;DHT22;7477;45.222;5.688;2024-01-06T08:00:52;5.70;99.90
14771;DHT22;7477;45.222;5.688;2024-01-06T08:04:11;5.70;99.90
14771;DHT22;7477;45.222;5.688;2024-01-06T08:07:31;5.70;99.90
14771;DHT22;7477;45.222;5.688;2024-01-06T08:10:50;5.70;99.90
14771;DHT22;7477;45.222;5.688;2024-01-06T08:14:09;5.60;99.90
14771;DHT22;7477;45.222;5.688;2024-01-06T08:17:30;5.60;99.90
14771;DHT22;7477;45.222;5.688;2024-01-06T08:20:49;5.70;99.90
14771;DHT22;7477;45.222;5.688;2024-01-06T08:24:08;5.70;99.90
14771;DHT22;7477;45.222;5.688;2024-01-06T08:27:27;5.60;99.90
14771;DHT22;7477;45.222;5.688;2024-01-06T08:30:47;5.60;99.90
14771;DHT22;7477;45.222;5.688;2024-01-06T08:34:06;5.60;99.90
14771;DHT22;7477;45.222;5.688;2024-01-06T08:37:27;5.70;99.90
14771;DHT22;7477;45.222;5.688;2024-01-06T08:40:46;5.70;99.90
14771;DHT22;7477;45.222;5.688;2024-01-06T08:44:07;5.70;99.90
14771;DHT22;7477;45.222;5.688;2024-01-06T08:47:26;5.80;99.90
14771;DHT22;7477;45.222;5.688;2024-01-06T08:50:45;5.70;99.90
14771;DHT22;7477;45.222;5.688;2024-01-06T08:54:05;5.70;99.90
14771;DHT22;7477;45.222;5.688;2024-01-06T08:57:25;5.70;99.90
14771;DHT22;7477;45.222;5.688;2024-01-06T09:00:44;5.80;99.90
14771;DHT22;7477;45.222;5.688;2024-01-06T09:04:03;5.70;99.90
14771;DHT22;7477;45.222;5.688;2024-01-06T09:07:23;5.70;99.90
14771;DHT22;7477;45.222;5.688;2024-01-06T09:10:42;5.60;99.90
14771;DHT22;7477;45.222;5.688;2024-01-06T09:14:02;5.70;99.90
14771;DHT22;7477;45.222;5.688;2024-01-06T09:17:21;5.70;99.90
14771;DHT22;7477;45.222;5.688;2024-01-06T09:20:41;5.70;99.90
14771;DHT22;7477;45.222;5.688;2024-01-06T09:24:00;5.70;99.90
14771;DHT22;7477;45.222;5.688;2024-01-06T09:27:24;5.70;99.90
14771;DHT22;7477;45.222;5.688;2024-01-06T09:30:44;5.70;99.90
14771;DHT22;7477;45.222;5.688;2024-01-06T09:34:03;5.70;99.90
14771;DHT22;7477;45.222;5.688;2024-01-06T09:37:23;5.70;99.90
14771;DHT22;7477;45.222;5.688;2024-01-06T09:40:43;5.70;99.90
14771;DHT22;7477;45.222;5.688;2024-01-06T09:44:04;6.70;99.90
14771;DHT22;7477;45.222;5.688;2024-01-06T09:47:25;7.70;99.90
14771;DHT22;7477;45.222;5.688;2024-01-06T09:50:48;6.60;99.90
14771;DHT22;7477;45.222;5.688;2024-01-06T09:54:10;5.90;99.90
14771;DHT22;7477;45.222;5.688;2024-01-06T09:57:31;5.80;99.90
14771;DHT22;7477;45.222;5.688;2024-01-06T10:00:52;5.80;99.90
14771;DHT22;7477;45.222;5.688;2024-01-06T10:04:11;5.80;99.90
14771;DHT22;7477;45.222;5.688;2024-01-06T10:07:30;5.70;99.90
14771;DHT22;7477;45.222;5.688;2024-01-06T10:10:49;5.80;99.90
14771;DHT22;7477;45.222;5.688;2024-01-06T10:14:08;5.70;99.90
14771;DHT22;7477;45.222;5.688;2024-01-06T10:17:27;5.70;99.90
14771;DHT22;7477;45.222;5.688;2024-01-06T10:20:47;5.70;99.90
14771;DHT22;7477;45.222;5.688;2024-01-06T10:24:08;5.70;99.90
14771;DHT22;7477;45.222;5.688;2024-01-06T10:27:28;5.70;99.90
14771;DHT22;7477;45.222;5.688;2024-01-06T10:30:48;5.70;99.90
14771;DHT22;7477;45.222;5.688;2024-01-06T10:34:07;5.70;99.90
14771;DHT22;7477;45.222;5.688;2024-01-06T10:37:28;5.70;99.90
14771;DHT22;7477;45.222;5.688;2024-01-06T10:40:58;5.70;99.90
14771;DHT22;7477;45.222;5.688;2024-01-06T10:44:19;5.60;99.90
14771;DHT22;7477;45.222;5.688;2024-01-06T10:47:40;5.60;99.90
14771;DHT22;7477;45.222;5.688;2024-01-06T10:51:00;5.70;99.90
14771;DHT22;7477;45.222;5.688;2024-01-06T10:54:21;5.70;99.90
14771;DHT22;7477;45.222;5.688;2024-01-06T10:57:43;5.70;99.90
14771;DHT22;7477;45.222;5.688;2024-01-06T11:01:03;5.80;99.90
14771;DHT22;7477;45.222;5.688;2024-01-06T11:04:23;5.70;99.90
14771;DHT22;7477;45.222;5.688;2024-01-06T11:07:43;5.70;99.90
14771;DHT22;7477;45.222;5.688;2024-01-06T11:11:04;5.80;99.90
14771;DHT22;7477;45.222;5.688;2024-01-06T11:14:25;5.80;99.90
14771;DHT22;7477;45.222;5.688;2024-01-06T11:17:57;5.80;99.90
14771;DHT22;7477;45.222;5.688;2024-01-06T11:21:21;5.80;99.90
14771;DHT22;7477;45.222;5.688;2024-01-06T11:24:54;5.80;99.90
14771;DHT22;7477;45.222;5.688;2024-01-06T11:28:16;5.80;99.90
14771;DHT22;7477;45.222;5.688;2024-01-06T11:31:37;5.80;99.90
14771;DHT22;7477;45.222;5.688;2024-01-06T11:35:11;5.90;99.90
14771;DHT22;7477;45.222;5.688;2024-01-06T11:38:35;5.90;99.90
14771;DHT22;7477;45.222;5.688;2024-01-06T11:41:57;5.90;99.90
14771;DHT22;7477;45.222;5.688;2024-01-06T11:45:16;5.90;99.90
14771;DHT22;7477;45.222;5.688;2024-01-06T11:48:36;5.90;99.90
14771;DHT22;7477;45.222;5.688;2024-01-06T11:51:58;5.90;99.90
14771;DHT22;7477;45.222;5.688;2024-01-06T11:55:19;5.90;99.90
14771;DHT22;7477;45.222;5.688;2024-01-06T11:58:41;5.90;99.90
14771;DHT22;7477;45.222;5.688;2024-01-06T12:02:01;6.00;99.90
14771;DHT22;7477;45.222;5.688;2024-01-06T12:05:20;6.00;99.90
14771;DHT22;7477;45.222;5.688;2024-01-06T12:08:39;6.00;99.90
14771;DHT22;7477;45.222;5.688;2024-01-06T12:12:05;6.10;99.90
14771;DHT22;7477;45.222;5.688;2024-01-06T12:15:29;6.10;99.90
14771;DHT22;7477;45.222;5.688;2024-01-06T12:18:49;6.10;99.90
14771;DHT22;7477;45.222;5.688;2024-01-06T12:22:14;6.10;99.90
14771;DHT22;7477;45.222;5.688;2024-01-06T12:25:34;6.10;99.90
14771;DHT22;7477;45.222;5.688;2024-01-06T12:28:54;6.10;99.90
14771;DHT22;7477;45.222;5.688;2024-01-06T12:32:13;6.20;99.90
14771;DHT22;7477;45.222;5.688;2024-01-06T12:35:34;6.10;99.90
14771;DHT22;7477;45.222;5.688;2024-01-06T12:38:53;6.20;99.90
14771;DHT22;7477;45.222;5.688;2024-01-06T12:42:15;6.10;99.90
14771;DHT22;7477;45.222;5.688;2024-01-06T12:45:35;6.10;99.90
14771;DHT22;7477;45.222;5.688;2024-01-06T12:48:55;6.10;99.90
14771;DHT22;7477;45.222;5.688;2024-01-06T12:52:14;6.10;99.90
14771;DHT22;7477;45.222;5.688;2024-01-06T12:55:33;6.10;99.90
14771;DHT22;7477;45.222;5.688;2024-01-06T12:58:52;6.20;99.90
14771;DHT22;7477;45.222;5.688;2024-01-06T13:02:12;6.20;99.90
14771;DHT22;7477;45.222;5.688;2024-01-06T13:05:31;6.10;99.90
14771;DHT22;7477;45.222;5.688;2024-01-06T13:08:50;6.10;99.90
14771;DHT22;7477;45.222;5.688;2024-01-06T13:12:09;6.00;99.90
14771;DHT22;7477;45.222;5.688;2024-01-06T13:15:28;5.90;99.90
14771;DHT22;7477;45.222;5.688;2024-01-06T13:18:47;5.90;99.90
14771;DHT22;7477;45.222;5.688;2024-01-06T13:22:07;5.90;99.90
14771;DHT22;7477;45.222;5.688;2024-01-06T13:25:28;5.90;99.90
14771;DHT22;7477;45.222;5.688;2024-01-06T13:28:47;5.90;99.90
14771;DHT22;7477;45.222;5.688;2024-01-06T13:32:07;6.00;99.90
14771;DHT22;7477;45.222;5.688;2024-01-06T13:35:27;5.90;99.90
14771;DHT22;7477;45.222;5.688;2024-01-06T13:38:47;5.90;99.90
14771;DHT22;7477;45.222;5.688;2024-01-06T13:42:07;5.90;99.90
14771;DHT22;7477;45.222;5.688;2024-01-06T13:45:27;5.90;99.90
14771;DHT22;7477;45.222;5.688;2024-01-06T13:48:49;5.90;99.90
14771;DHT22;7477;45.222;5.688;2024-01-06T13:52:08;5.90;99.90
14771;DHT22;7477;45.222;5.688;2024-01-06T13:55:28;5.90;99.90
14771;DHT22;7477;45.222;5.688;2024-01-06T13:58:47;5.90;99.90
14771;DHT22;7477;45.222;5.688;2024-01-06T14:02:06;5.90;99.90
14771;DHT22;7477;45.222;5.688;2024-01-06T14:05:26;6.00;99.90
14771;DHT22;7477;45.222;5.688;2024-01-06T14:08:46;6.00;99.90
14771;DHT22;7477;45.222;5.688;2024-01-06T14:12:05;6.00;99.90
14771;DHT22;7477;45.222;5.688;2024-01-06T14:15:25;6.00;99.90
14771;DHT22;7477;45.222;5.688;2024-01-06T14:18:45;6.00;99.90
14771;DHT22;7477;45.222;5.688;2024-01-06T14:22:05;6.00;99.90
14771;DHT22;7477;45.222;5.688;2024-01-06T14:25:25;6.00;99.90
14771;DHT22;7477;45.222;5.688;2024-01-06T14:28:44;6.00;99.90
14771;DHT22;7477;45.222;5.688;2024-01-06T14:32:04;6.00;99.90
14771;DHT22;7477;45.222;5.688;2024-01-06T14:35:23;6.10;99.90
14771;DHT22;7477;45.222;5.688;2024-01-06T14:38:42;6.10;99.90
14771;DHT22;7477;45.222;5.688;2024-01-06T14:42:02;6.20;99.90
14771;DHT22;7477;45.222;5.688;2024-01-06T14:45:21;6.20;99.90
14771;DHT22;7477;45.222;5.688;2024-01-06T14:48:41;6.20;99.90
14771;DHT22;7477;45.222;5.688;2024-01-06T14:52:00;6.10;99.90
14771;DHT22;7477;45.222;5.688;2024-01-06T14:55:21;6.10;99.90
14771;DHT22;7477;45.222;5.688;2024-01-06T14:58:40;6.10;99.90
14771;DHT22;7477;45.222;5.688;2024-01-06T15:01:59;5.90;99.90
14771;DHT22;7477;45.222;5.688;2024-01-06T15:05:18;6.00;99.90
14771;DHT22;7477;45.222;5.688;2024-01-06T15:08:37;6.00;99.90
14771;DHT22;7477;45.222;5.688;2024-01-06T15:11:56;6.00;99.90
14771;DHT22;7477;45.222;5.688;2024-01-06T15:15:15;6.00;99.90
14771;DHT22;7477;45.222;5.688;2024-01-06T15:18:35;6.00;99.90
14771;DHT22;7477;45.222;5.688;2024-01-06T15:21:55;5.90;99.90
14771;DHT22;7477;45.222;5.688;2024-01-06T15:25:14;5.90;99.90
14771;DHT22;7477;45.222;5.688;2024-01-06T15:28:33;5.90;99.90
14771;DHT22;7477;45.222;5.688;2024-01-06T15:31:53;5.90;99.90
14771;DHT22;7477;45.222;5.688;2024-01-06T15:35:16;5.90;99.90
14771;DHT22;7477;45.222;5.688;2024-01-06T15:38:35;5.80;99.90
14771;DHT22;7477;45.222;5.688;2024-01-06T15:41:54;5.80;99.90
14771;DHT22;7477;45.222;5.688;2024-01-06T15:45:13;5.80;99.90
14771;DHT22;7477;45.222;5.688;2024-01-06T15:48:33;5.80;99.90
14771;DHT22;7477;45.222;5.688;2024-01-06T15:51:52;5.90;99.90
14771;DHT22;7477;45.222;5.688;2024-01-06T15:55:12;5.90;99.90
14771;DHT22;7477;45.222;5.688;2024-01-06T15:58:31;5.90;99.90
14771;DHT22;7477;45.222;5.688;2024-01-06T16:01:51;5.90;99.90
14771;DHT22;7477;45.222;5.688;2024-01-06T16:05:11;5.90;99.90
14771;DHT22;7477;45.222;5.688;2024-01-06T16:08:32;5.90;99.90
14771;DHT22;7477;45.222;5.688;2024-01-06T16:11:52;5.90;99.90
14771;DHT22;7477;45.222;5.688;2024-01-06T16:15:11;6.00;99.90
14771;DHT22;7477;45.222;5.688;2024-01-06T16:18:31;5.90;99.90
14771;DHT22;7477;45.222;5.688;2024-01-06T16:21:50;5.90;99.90
14771;DHT22;7477;45.222;5.688;2024-01-06T16:25:09;5.90;99.90
14771;DHT22;7477;45.222;5.688;2024-01-06T16:28:28;5.90;99.90
14771;DHT22;7477;45.222;5.688;2024-01-06T16:31:47;5.90;99.90
14771;DHT22;7477;45.222;5.688;2024-01-06T16:35:07;5.90;99.90
14771;DHT22;7477;45.222;5.688;2024-01-06T16:38:27;5.90;99.90
14771;DHT22;7477;45.222;5.688;2024-01-06T16:41:53;5.90;99.90
14771;DHT22;7477;45.222;5.688;2024-01-06T16:45:16;5.90;99.90
14771;DHT22;7477;45.222;5.688;2024-01-06T16:48:35;5.90;99.90
14771;DHT22;7477;45.222;5.688;2024-01-06T16:51:55;5.90;99.90
14771;DHT22;7477;45.222;5.688;2024-01-06T16:55:14;5.90;99.90
14771;DHT22;7477;45.222;5.688;2024-01-06T16:58:34;5.90;99.90
14771;DHT22;7477;45.222;5.688;2024-01-06T17:01:54;5.90;99.90
14771;DHT22;7477;45.222;5.688;2024-01-06T17:05:13;5.90;99.90
14771;DHT22;7477;45.222;5.688;2024-01-06T17:08:32;5.90;99.90
14771;DHT22;7477;45.222;5.688;2024-01-06T17:11:52;5.90;99.90
14771;DHT22;7477;45.222;5.688;2024-01-06T17:15:11;5.90;99.90
14771;DHT22;7477;45.222;5.688;2024-01-06T17:18:31;5.90;99.90
14771;DHT22;7477;45.222;5.688;2024-01-06T17:21:50;5.90;99.90
14771;DHT22;7477;45.222;5.688;2024-01-06T17:25:09;6.00;99.90
14771;DHT22;7477;45.222;5.688;2024-01-06T17:28:31;5.90;99.90
14771;DHT22;7477;45.222;5.688;2024-01-06T17:31:50;5.90;99.90
14771;DHT22;7477;45.222;5.688;2024-01-06T17:35:09;5.90;99.90
14771;DHT22;7477;45.222;5.688;2024-01-06T17:38:29;5.90;99.90
14771;DHT22;7477;45.222;5.688;2024-01-06T17:41:49;5.90;99.90
14771;DHT22;7477;45.222;5.688;2024-01-06T17:45:08;5.90;99.90
14771;DHT22;7477;45.222;5.688;2024-01-06T17:48:27;5.90;99.90
14771;DHT22;7477;45.222;5.688;2024-01-06T17:51:47;5.90;99.90
14771;DHT22;7477;45.222;5.688;2024-01-06T17:55:06;5.90;99.90
14771;DHT22;7477;45.222;5.688;2024-01-06T17:58:26;5.90;99.90
14771;DHT22;7477;45.222;5.688;2024-01-06T18:01:45;5.90;99.90
14771;DHT22;7477;45.222;5.688;2024-01-06T18:05:05;5.90;99.90
14771;DHT22;7477;45.222;5.688;2024-01-06T18:08:24;5.90;99.90
14771;DHT22;7477;45.222;5.688;2024-01-06T18:11:43;5.90;99.90
14771;DHT22;7477;45.222;5.688;2024-01-06T18:15:04;5.80;99.90
14771;DHT22;7477;45.222;5.688;2024-01-06T18:18:24;5.90;99.90
14771;DHT22;7477;45.222;5.688;2024-01-06T18:21:44;5.80;99.90
14771;DHT22;7477;45.222;5.688;2024-01-06T18:25:03;5.80;99.90
14771;DHT22;7477;45.222;5.688;2024-01-06T18:28:22;5.90;99.90
14771;DHT22;7477;45.222;5.688;2024-01-06T18:31:44;5.80;99.90
14771;DHT22;7477;45.222;5.688;2024-01-06T18:35:03;5.90;99.90
14771;DHT22;7477;45.222;5.688;2024-01-06T18:38:25;5.80;99.90
14771;DHT22;7477;45.222;5.688;2024-01-06T18:41:44;5.80;99.90
14771;DHT22;7477;45.222;5.688;2024-01-06T18:45:04;5.80;99.90
14771;DHT22;7477;45.222;5.688;2024-01-06T18:48:23;5.80;99.90
14771;DHT22;7477;45.222;5.688;2024-01-06T18:51:42;5.80;99.90
14771;DHT22;7477;45.222;5.688;2024-01-06T18:55:02;5.80;99.90
14771;DHT22;7477;45.222;5.688;2024-01-06T18:58:22;5.80;99.90
14771;DHT22;7477;45.222;5.688;2024-01-06T19:01:41;5.80;99.90
14771;DHT22;7477;45.222;5.688;2024-01-06T19:05:02;5.80;99.90
14771;DHT22;7477;45.222;5.688;2024-01-06T19:08:23;5.80;99.90
14771;DHT22;7477;45.222;5.688;2024-01-06T19:11:42;5.80;99.90
14771;DHT22;7477;45.222;5.688;2024-01-06T19:15:02;5.80;99.90
14771;DHT22;7477;45.222;5.688;2024-01-06T19:18:21;5.80;99.90
14771;DHT22;7477;45.222;5.688;2024-01-06T19:21:40;5.80;99.90
14771;DHT22;7477;45.222;5.688;2024-01-06T19:25:00;5.80;99.90
14771;DHT22;7477;45.222;5.688;2024-01-06T19:28:19;5.80;99.90
14771;DHT22;7477;45.222;5.688;2024-01-06T19:31:38;5.80;99.90
14771;DHT22;7477;45.222;5.688;2024-01-06T19:34:57;5.70;99.90
14771;DHT22;7477;45.222;5.688;2024-01-06T19:38:17;5.80;99.90
14771;DHT22;7477;45.222;5.688;2024-01-06T19:41:36;5.70;99.90
14771;DHT22;7477;45.222;5.688;2024-01-06T19:44:55;5.70;99.90
14771;DHT22;7477;45.222;5.688;2024-01-06T19:48:14;5.80;99.90
14771;DHT22;7477;45.222;5.688;2024-01-06T19:51:33;5.70;99.90
14771;DHT22;7477;45.222;5.688;2024-01-06T19:54:52;5.70;99.90
14771;DHT22;7477;45.222;5.688;2024-01-06T19:58:11;5.70;99.90
14771;DHT22;7477;45.222;5.688;2024-01-06T20:01:33;5.70;99.90
14771;DHT22;7477;45.222;5.688;2024-01-06T20:04:55;5.70;99.90
14771;DHT22;7477;45.222;5.688;2024-01-06T20:08:14;5.70;99.90
14771;DHT22;7477;45.222;5.688;2024-01-06T20:11:33;5.70;99.90
14771;DHT22;7477;45.222;5.688;2024-01-06T20:14:52;5.60;99.90
14771;DHT22;7477;45.222;5.688;2024-01-06T20:18:13;5.60;99.90
14771;DHT22;7477;45.222;5.688;2024-01-06T20:21:32;5.60;99.90
14771;DHT22;7477;45.222;5.688;2024-01-06T20:24:51;5.60;99.90
14771;DHT22;7477;45.222;5.688;2024-01-06T20:28:10;5.50;99.90
14771;DHT22;7477;45.222;5.688;2024-01-06T20:31:29;5.50;99.90
14771;DHT22;7477;45.222;5.688;2024-01-06T20:34:49;5.50;99.90
14771;DHT22;7477;45.222;5.688;2024-01-06T20:38:08;5.50;99.90
14771;DHT22;7477;45.222;5.688;2024-01-06T20:41:27;5.40;99.90
14771;DHT22;7477;45.222;5.688;2024-01-06T20:44:46;5.40;99.90
14771;DHT22;7477;45.222;5.688;2024-01-06T20:48:05;5.50;99.90
14771;DHT22;7477;45.222;5.688;2024-01-06T20:51:27;5.40;99.90
14771;DHT22;7477;45.222;5.688;2024-01-06T20:54:46;5.40;99.90
14771;DHT22;7477;45.222;5.688;2024-01-06T20:58:06;5.30;99.90
14771;DHT22;7477;45.222;5.688;2024-01-06T21:01:25;5.30;99.90
14771;DHT22;7477;45.222;5.688;2024-01-06T21:04:44;5.30;99.90
14771;DHT22;7477;45.222;5.688;2024-01-06T21:08:03;5.30;99.90
14771;DHT22;7477;45.222;5.688;2024-01-06T21:11:23;5.20;99.90
14771;DHT22;7477;45.222;5.688;2024-01-06T21:14:42;5.30;99.90
14771;DHT22;7477;45.222;5.688;2024-01-06T21:18:02;5.10;99.90
14771;DHT22;7477;45.222;5.688;2024-01-06T21:21:22;5.20;99.90
14771;DHT22;7477;45.222;5.688;2024-01-06T21:24:45;5.20;99.90
14771;DHT22;7477;45.222;5.688;2024-01-06T21:28:05;5.20;99.90
14771;DHT22;7477;45.222;5.688;2024-01-06T21:31:24;5.20;99.90
14771;DHT22;7477;45.222;5.688;2024-01-06T21:34:45;5.20;99.90
14771;DHT22;7477;45.222;5.688;2024-01-06T21:38:05;5.20;99.90
14771;DHT22;7477;45.222;5.688;2024-01-06T21:41:31;5.20;99.90
14771;DHT22;7477;45.222;5.688;2024-01-06T21:44:50;5.20;99.90